Time;durP1;ratioP1;P1;durP2;ratioP2;P2;SDS_P1;SDS_P2;PMS_P1;PMS_P2;Temp;Humidity;BMP_temperature;BMP_pressure;BME280_temperature;BME280_humidity;BME280_pressure;Samples;Min_cycle;Max_cycle;Signal;HPM_P1;HPM_P2
2022/07/16 00:05:57;;;;;;;1.52;1.30;;;;;;;19.62;47.25;97232.09;10183358;29;20504;-56
2022/07/16 00:11:17;;;;;;;2.33;1.25;;;;;;;19.61;47.17;97232.41;10159906;29;20060;-56
2022/07/16 00:16:36;;;;;;;1.35;1.25;;;;;;;19.62;47.39;97228.56;10173858;29;20056;-56
2022/07/16 00:21:56;;;;;;;1.40;1.20;;;;;;;19.61;47.35;97226.97;10171238;29;20127;-56
2022/07/16 00:27:16;;;;;;;3.58;1.23;;;;;;;19.59;47.46;97218.41;10185620;29;20056;-56
2022/07/16 00:32:35;;;;;;;1.80;1.48;;;;;;;19.59;47.16;97218.41;10172904;29;20056;-56
2022/07/16 00:37:54;;;;;;;1.92;1.38;;;;;;;19.56;47.35;97215.22;10185567;29;20111;-56
2022/07/16 00:43:15;;;;;;;2.22;1.35;;;;;;;19.55;47.49;97216.31;10185607;29;20060;-56
2022/07/16 00:48:35;;;;;;;2.30;1.33;;;;;;;19.54;46.95;97206.63;10188818;29;20515;-56
2022/07/16 00:53:55;;;;;;;1.88;1.48;;;;;;;19.52;47.00;97206.16;10191884;29;20059;-56
2022/07/16 00:59:14;;;;;;;1.75;1.30;;;;;;;19.51;47.07;97206.44;10173029;29;20067;-56
2022/07/16 01:04:34;;;;;;;3.17;1.42;;;;;;;19.51;47.27;97209.16;10169273;29;20067;-56
2022/07/16 01:09:54;;;;;;;1.77;1.30;;;;;;;19.50;47.07;97208.38;10172829;29;20056;-57
2022/07/16 01:15:13;;;;;;;1.95;1.48;;;;;;;19.50;47.08;97207.53;10182951;29;20056;-56
2022/07/16 01:20:32;;;;;;;1.85;1.48;;;;;;;19.48;47.09;97207.88;10172488;29;20068;-56
2022/07/16 01:25:52;;;;;;;3.55;1.58;;;;;;;19.46;47.19;97209.28;10172555;29;20063;-56
2022/07/16 01:31:11;;;;;;;2.42;1.50;;;;;;;19.46;47.37;97209.28;10173202;29;20516;-55
2022/07/16 01:36:31;;;;;;;2.45;1.75;;;;;;;19.44;47.05;97200.69;10186247;29;20500;-57
2022/07/16 01:41:55;;;;;;;2.50;1.67;;;;;;;19.43;47.29;97202.59;10178487;29;20064;-56
2022/07/16 01:47:14;;;;;;;2.35;1.70;;;;;;;19.43;47.49;97189.09;10182714;29;20056;-56
2022/07/16 01:52:33;;;;;;;4.60;1.70;;;;;;;19.43;47.45;97193.72;10184866;29;20048;-57
2022/07/16 01:57:52;;;;;;;1.88;1.52;;;;;;;19.40;47.55;97184.31;10171460;29;20059;-56
2022/07/16 02:03:13;;;;;;;3.80;1.70;;;;;;;19.41;47.51;97180.50;10178836;29;20060;-56
2022/07/16 02:08:32;;;;;;;2.70;1.65;;;;;;;19.40;47.59;97178.13;10168668;29;20075;-56
2022/07/16 02:13:51;;;;;;;4.22;1.67;;;;;;;19.40;47.65;97172.72;10190853;29;20048;-57
2022/07/16 02:19:10;;;;;;;2.78;1.70;;;;;;;19.39;47.59;97171.94;10178182;29;20135;-56
2022/07/16 02:24:30;;;;;;;3.80;1.45;;;;;;;19.36;47.48;97170.63;10165826;29;20067;-56
2022/07/16 02:29:49;;;;;;;2.40;1.63;;;;;;;19.36;47.39;97175.25;10183427;29;20523;-54
2022/07/16 02:35:09;;;;;;;4.25;1.52;;;;;;;19.32;47.33;97174.28;10177376;29;20056;-57
2022/07/16 02:40:28;;;;;;;2.67;1.75;;;;;;;19.32;47.56;97185.09;10189165;29;20064;-57
2022/07/16 02:45:48;;;;;;;1.70;1.50;;;;;;;19.32;47.47;97176.97;10183107;29;20056;-56
2022/07/16 02:51:07;;;;;;;2.40;1.70;;;;;;;19.31;47.57;97178.91;10176565;29;20093;-56
2022/07/16 02:56:27;;;;;;;2.42;1.52;;;;;;;19.29;47.58;97173.00;10176802;29;20461;-56
2022/07/16 03:01:46;;;;;;;1.50;1.40;;;;;;;19.29;47.64;97175.72;10176187;29;20056;-57
2022/07/16 03:07:05;;;;;;;3.35;1.80;;;;;;;19.29;47.80;97173.00;10176672;29;20108;-56
2022/07/16 03:12:25;;;;;;;4.55;1.65;;;;;;;19.29;47.79;97173.00;10175747;29;20059;-56
2022/07/16 03:17:44;;;;;;;2.28;1.40;;;;;;;19.28;47.92;97162.50;10175539;29;20063;-56
2022/07/16 03:23:03;;;;;;;2.45;1.60;;;;;;;19.27;47.97;97164.44;10178640;29;20575;-56
2022/07/16 03:28:22;;;;;;;1.83;1.60;;;;;;;19.27;48.01;97159.03;10175072;29;20563;-56
2022/07/16 03:33:42;;;;;;;2.83;1.65;;;;;;;19.26;47.95;97160.13;10174613;29;20060;-57
2022/07/16 03:39:04;;;;;;;2.47;1.45;;;;;;;19.24;48.02;97170.44;10199280;29;20052;-55
2022/07/16 03:44:23;;;;;;;1.92;1.73;;;;;;;19.24;48.10;97165.03;10174548;29;20535;-56
2022/07/16 03:49:42;;;;;;;4.32;1.83;;;;;;;19.24;47.99;97158.84;10187438;29;20547;-55
2022/07/16 03:55:02;;;;;;;1.95;1.33;;;;;;;19.23;48.08;97166.16;10187446;29;20511;-56
2022/07/16 04:00:21;;;;;;;1.70;1.30;;;;;;;19.22;48.03;97166.47;10163578;29;20086;-56
2022/07/16 04:05:41;;;;;;;2.92;1.70;;;;;;;19.22;48.08;97169.16;10174562;29;20060;-56
2022/07/16 04:11:01;;;;;;;3.38;1.55;;;;;;;19.20;48.22;97168.69;10173672;29;20144;-56
2022/07/16 04:16:20;;;;;;;1.90;1.70;;;;;;;19.19;48.19;97170.59;10159111;29;20063;-56
2022/07/16 04:21:39;;;;;;;2.00;1.52;;;;;;;19.17;48.14;97164.72;10173174;29;20107;-56
2022/07/16 04:26:59;;;;;;;1.65;1.40;;;;;;;19.17;48.23;97168.22;10173655;29;20071;-56
2022/07/16 04:32:18;;;;;;;1.98;1.80;;;;;;;19.16;48.24;97163.91;10171062;29;20064;-55
2022/07/16 04:37:37;;;;;;;1.98;1.40;;;;;;;19.17;48.31;97164.72;10184624;29;20111;-56
2022/07/16 04:42:56;;;;;;;1.83;1.50;;;;;;;19.21;48.45;97162.16;10173084;29;20056;-56
2022/07/16 04:48:15;;;;;;;1.77;1.50;;;;;;;19.22;48.40;97167.25;10173190;29;20059;-56
2022/07/16 04:53:35;;;;;;;2.20;1.55;;;;;;;19.23;48.75;97159.94;10172892;29;20420;-56
2022/07/16 04:58:54;;;;;;;1.58;1.48;;;;;;;19.23;48.78;97165.34;10185445;29;20104;-56
2022/07/16 05:04:14;;;;;;;2.17;1.70;;;;;;;19.22;48.89;97155.66;10172919;29;20119;-56
2022/07/16 05:09:34;;;;;;;2.70;1.67;;;;;;;19.22;48.98;97161.84;10185355;29;20052;-56
2022/07/16 05:14:53;;;;;;;2.28;1.80;;;;;;;19.22;49.08;97166.47;10173882;29;20135;-55
2022/07/16 05:20:12;;;;;;;2.13;1.92;;;;;;;19.23;49.31;97168.88;10171987;29;20500;-57
2022/07/16 05:25:32;;;;;;;2.72;2.10;;;;;;;19.25;49.49;97160.44;10172405;29;20107;-56
2022/07/16 05:30:51;;;;;;;2.45;2.10;;;;;;;19.26;49.50;97167.44;10173133;29;20059;-56
2022/07/16 05:36:10;;;;;;;3.88;2.00;;;;;;;19.23;49.55;97170.75;10180938;29;20055;-56
2022/07/16 05:41:30;;;;;;;3.20;2.05;;;;;;;19.13;49.80;97178.03;10167913;29;20060;-56
2022/07/16 05:46:49;;;;;;;2.42;2.22;;;;;;;19.09;50.21;97179.78;10192085;29;20107;-56
2022/07/16 05:52:09;;;;;;;4.05;2.30;;;;;;;19.07;50.40;97178.47;10179377;29;20649;-57
2022/07/16 05:57:29;;;;;;;3.10;2.20;;;;;;;19.05;49.91;97170.72;10179129;29;20089;-55
2022/07/16 06:02:48;;;;;;;2.80;1.88;;;;;;;19.05;50.37;97183.38;10178180;29;20064;-57
2022/07/16 06:08:07;;;;;;;2.75;2.20;;;;;;;19.05;50.50;97178.81;10190697;29;20048;-56
2022/07/16 06:13:27;;;;;;;2.58;1.98;;;;;;;19.05;50.22;97175.28;10178433;29;20056;-57
2022/07/16 06:18:46;;;;;;;2.20;1.80;;;;;;;19.05;50.29;97189.63;10190802;29;20413;-57
2022/07/16 06:24:05;;;;;;;2.95;2.08;;;;;;;19.12;50.66;97187.25;10190145;29;20052;-56
2022/07/16 06:29:25;;;;;;;3.47;1.88;;;;;;;19.16;50.72;97185.50;10166383;29;20496;-56
2022/07/16 06:34:44;;;;;;;3.95;2.20;;;;;;;19.19;50.78;97186.81;10176779;29;20115;-56
2022/07/16 06:40:04;;;;;;;2.97;2.05;;;;;;;19.23;50.85;97192.34;10176711;29;20504;-57
2022/07/16 06:45:24;;;;;;;2.90;1.52;;;;;;;19.21;49.72;97187.28;10189097;29;20052;-57
2022/07/16 06:50:44;;;;;;;4.47;1.50;;;;;;;19.20;49.02;97193.78;10166492;29;20571;-56
2022/07/16 06:56:05;;;;;;;4.32;1.30;;;;;;;19.21;49.07;97197.28;10202022;29;20060;-56
2022/07/16 07:01:25;;;;;;;2.80;1.27;;;;;;;19.21;49.11;97198.09;10176895;29;20064;-56
2022/07/16 07:06:44;;;;;;;2.60;1.10;;;;;;;19.22;49.50;97194.28;10164327;29;20060;-55
2022/07/16 07:12:04;;;;;;;4.63;1.30;;;;;;;19.23;49.69;97190.47;10176322;29;20072;-56
2022/07/16 07:17:23;;;;;;;2.03;1.25;;;;;;;19.24;49.70;97183.94;10176254;29;20056;-56
2022/07/16 07:22:43;;;;;;;2.63;1.40;;;;;;;19.26;49.93;97192.53;10175107;29;20519;-53
2022/07/16 07:28:02;;;;;;;2.17;1.50;;;;;;;19.28;50.05;97200.34;10175347;29;20116;-56
2022/07/16 07:33:23;;;;;;;3.40;1.45;;;;;;;19.28;50.22;97190.31;10175434;29;20052;-55
2022/07/16 07:38:43;;;;;;;5.65;2.40;;;;;;;19.30;50.42;97190.00;10173694;29;20083;-56
2022/07/16 07:44:03;;;;;;;6.93;2.70;;;;;;;19.30;50.50;97179.19;10162732;29;20100;-56
2022/07/16 07:49:22;;;;;;;3.78;2.00;;;;;;;19.31;50.62;97191.63;10174455;29;20579;-56
2022/07/16 07:54:41;;;;;;;5.60;2.05;;;;;;;19.31;50.88;97192.41;10174689;29;20056;-56
2022/07/16 08:00:03;;;;;;;4.78;2.05;;;;;;;19.32;50.89;97187.78;10174840;29;20063;-55
2022/07/16 08:05:31;;;;;;;5.18;2.15;;;;;;;19.32;50.91;97179.69;10173642;29;20056;-56
2022/07/16 08:10:51;;;;;;;3.03;1.70;;;;;;;19.33;51.04;97189.41;10186644;29;20059;-56
2022/07/16 08:16:10;;;;;;;3.75;1.75;;;;;;;19.33;51.21;97187.47;10174087;29;20056;-55
2022/07/16 08:21:29;;;;;;;4.60;1.75;;;;;;;19.35;51.24;97197.97;10166751;29;20075;-56
2022/07/16 08:26:49;;;;;;;3.75;1.90;;;;;;;19.34;51.23;97182.88;10174180;29;20063;-56
2022/07/16 08:32:09;;;;;;;2.47;1.60;;;;;;;19.36;51.31;97191.47;10171239;29;20142;-56
2022/07/16 08:37:40;;;;;;;2.72;1.70;;;;;;;19.36;51.28;97186.06;10173673;29;20067;-57
2022/07/16 08:42:59;;;;;;;3.53;1.55;;;;;;;19.36;51.40;97194.94;10172530;29;20060;-56
2022/07/16 08:48:20;;;;;;;3.42;1.80;;;;;;;19.36;51.44;97176.03;10185624;29;20123;-56
2022/07/16 08:53:40;;;;;;;3.60;1.73;;;;;;;19.36;51.46;97188.75;10185670;29;20412;-56
2022/07/16 08:59:01;;;;;;;4.22;2.42;;;;;;;19.36;51.45;97189.53;10172793;29;20060;-56
2022/07/16 09:04:21;;;;;;;3.97;2.13;;;;;;;19.39;51.63;97190.06;10172023;29;20116;-56
2022/07/16 09:09:40;;;;;;;3.33;1.75;;;;;;;19.39;51.92;97200.84;10187340;29;20460;-56
2022/07/16 09:15:26;;;;;;;6.70;2.10;;;;;;;19.39;52.03;97198.16;10179289;29;21088;-56
2022/07/16 09:20:45;;;;;;;3.80;1.90;;;;;;;19.39;52.05;97196.25;10179735;29;20089;-55
2022/07/16 09:26:10;;;;;;;2.97;1.80;;;;;;;19.40;51.89;97197.03;10179812;29;20056;-56
2022/07/16 09:31:32;;;;;;;3.13;1.90;;;;;;;19.40;52.08;97187.00;10179044;29;20063;-57
2022/07/16 09:37:10;;;;;;;3.35;1.73;;;;;;;19.39;52.12;97180.03;10187388;29;20056;-56
2022/07/16 09:42:39;;;;;;;2.63;1.50;;;;;;;19.40;52.29;97187.00;10168275;29;20079;-56
2022/07/16 09:47:59;;;;;;;4.57;1.80;;;;;;;19.40;52.30;97178.91;10179438;29;20056;-57
2022/07/16 09:53:22;;;;;;;2.88;1.65;;;;;;;19.40;52.47;97178.91;10188610;29;20052;-56
2022/07/16 09:58:54;;;;;;;2.80;1.60;;;;;;;19.41;52.37;97185.91;10167502;29;20071;-56
2022/07/16 10:04:14;;;;;;;3.28;1.50;;;;;;;19.41;52.59;97177.81;10191496;29;20056;-56
2022/07/16 10:09:33;;;;;;;2.40;1.58;;;;;;;19.41;52.61;97175.09;10178348;29;20516;-57
2022/07/16 10:14:54;;;;;;;2.97;1.50;;;;;;;19.42;52.59;97170.50;10166862;29;20056;-57
2022/07/16 10:20:18;;;;;;;2.35;1.40;;;;;;;19.43;52.79;97174.81;10177289;29;20068;-56
2022/07/16 10:25:38;;;;;;;2.15;1.45;;;;;;;19.43;52.64;97174.81;10177360;29;20059;-56
2022/07/16 10:31:39;;;;;;;2.13;1.60;;;;;;;19.43;52.73;97172.88;10175680;29;20064;-56
2022/07/16 10:36:59;;;;;;;2.63;1.48;;;;;;;19.44;52.78;97169.06;10186631;29;20419;-54
2022/07/16 10:42:18;;;;;;;2.83;1.50;;;;;;;19.44;52.83;97168.28;10190865;29;20059;-51
2022/07/16 10:47:43;;;;;;;2.08;1.40;;;;;;;19.44;52.78;97174.47;10177334;29;20052;-56
2022/07/16 10:53:02;;;;;;;2.90;1.42;;;;;;;19.45;52.84;97178.78;10177348;29;20059;-56
2022/07/16 10:58:26;;;;;;;1.65;1.35;;;;;;;19.45;52.88;97162.56;10176985;29;20048;-56
2022/07/16 11:03:50;;;;;;;2.78;1.50;;;;;;;19.46;52.90;97152.53;10167681;29;20063;-56
2022/07/16 11:09:10;;;;;;;1.70;1.30;;;;;;;19.48;52.86;97145.75;10189216;29;20051;-56
2022/07/16 11:14:30;;;;;;;2.30;1.35;;;;;;;19.47;52.95;97148.75;10176229;29;20460;-56
2022/07/16 11:19:51;;;;;;;2.22;1.50;;;;;;;19.48;52.83;97170.06;10176468;29;20052;-56
2022/07/16 11:25:11;;;;;;;2.45;1.52;;;;;;;19.49;53.01;97168.94;10176004;29;20056;-57
2022/07/16 11:30:31;;;;;;;1.77;1.25;;;;;;;19.47;52.90;97157.63;10174894;29;20064;-56
2022/07/16 11:36:08;;;;;;;1.92;1.15;;;;;;;19.48;53.06;97167.34;10163967;29;20052;-56
2022/07/16 11:41:28;;;;;;;1.58;1.25;;;;;;;19.48;53.06;97161.94;10181860;29;20064;-56
2022/07/16 11:46:59;;;;;;;1.65;1.23;;;;;;;19.49;53.00;97176.25;10170920;29;20067;-56
2022/07/16 11:52:24;;;;;;;2.55;1.40;;;;;;;19.49;53.14;97177.03;10164187;29;20056;-55
2022/07/16 11:57:47;;;;;;;1.80;1.10;;;;;;;19.50;53.11;97178.66;10174768;29;20056;-56
2022/07/16 12:03:09;;;;;;;1.92;1.27;;;;;;;19.50;53.10;97178.66;10174422;29;20064;-56
2022/07/16 12:08:30;;;;;;;2.13;1.30;;;;;;;19.50;53.18;97177.81;10163980;29;20048;-56
2022/07/16 12:13:53;;;;;;;2.22;1.30;;;;;;;19.51;53.23;97187.53;10186545;29;20492;-56
2022/07/16 12:19:13;;;;;;;2.20;1.30;;;;;;;19.51;53.23;97192.94;10171905;29;20067;-53
2022/07/16 12:24:32;;;;;;;1.83;1.20;;;;;;;19.51;53.26;97199.13;10186195;29;20052;-56
2022/07/16 12:29:52;;;;;;;2.17;1.30;;;;;;;19.52;53.18;97189.94;10179323;29;20412;-57
2022/07/16 12:35:37;;;;;;;1.92;1.30;;;;;;;19.53;53.35;97198.81;10172246;29;20107;-56
2022/07/16 12:40:57;;;;;;;1.33;1.13;;;;;;;19.54;53.23;97195.00;10162556;29;20064;-56
2022/07/16 12:46:17;;;;;;;1.55;1.17;;;;;;;19.54;53.17;97185.00;10171808;29;20543;-56
2022/07/16 12:51:42;;;;;;;1.38;1.10;;;;;;;19.53;53.19;97191.50;10173271;29;20059;-57
2022/07/16 13:02:39;;;;;;;1.90;1.20;;;;;;;19.54;53.32;97193.13;10185583;29;20056;-55
2022/07/16 13:07:59;;;;;;;1.60;1.23;;;;;;;19.54;53.38;97201.22;10172325;29;20056;-56
2022/07/16 13:13:18;;;;;;;1.20;0.90;;;;;;;19.55;53.44;97202.00;10172592;29;20437;-56
2022/07/16 13:18:38;;;;;;;1.88;1.30;;;;;;;19.56;53.31;97196.28;10172175;29;20116;-56
2022/07/16 13:23:58;;;;;;;1.23;0.90;;;;;;;19.55;53.45;97202.78;10172640;29;20071;-56
2022/07/16 13:29:17;;;;;;;1.60;1.23;;;;;;;19.56;53.36;97209.81;10171593;29;20523;-56
2022/07/16 13:34:37;;;;;;;1.30;1.08;;;;;;;19.57;53.41;97210.59;10170185;29;20064;-56
2022/07/16 13:39:56;;;;;;;1.85;1.25;;;;;;;19.58;53.53;97201.38;10172086;29;20056;-56
2022/07/16 13:45:15;;;;;;;1.80;1.20;;;;;;;19.58;53.45;97197.88;10171506;29;20535;-53
2022/07/16 13:50:36;;;;;;;1.25;0.98;;;;;;;19.57;53.48;97205.19;10172253;29;20064;-57
2022/07/16 13:55:55;;;;;;;1.63;1.20;;;;;;;19.58;53.44;97214.09;10175961;29;20052;-57
2022/07/16 14:01:15;;;;;;;1.63;1.00;;;;;;;19.58;53.53;97222.97;10191663;29;20056;-55
2022/07/16 14:06:35;;;;;;;1.60;1.30;;;;;;;19.59;53.42;97226.50;10178626;29;20055;-56
2022/07/16 14:11:55;;;;;;;1.92;1.23;;;;;;;19.60;53.55;97225.38;10191043;29;20052;-55
2022/07/16 14:17:14;;;;;;;1.48;1.08;;;;;;;19.60;53.29;97228.09;10191595;29;20052;-56
2022/07/16 14:22:33;;;;;;;1.20;1.10;;;;;;;19.61;53.54;97230.47;10178379;29;20060;-55
2022/07/16 14:27:53;;;;;;;1.30;1.00;;;;;;;19.61;53.65;97232.41;10166674;29;20052;-57
2022/07/16 14:33:12;;;;;;;1.23;1.02;;;;;;;19.62;53.52;97233.97;10178076;29;20416;-55
2022/07/16 14:38:32;;;;;;;1.50;1.05;;;;;;;19.62;53.66;97239.38;10179024;29;20092;-56
2022/07/16 14:43:51;;;;;;;1.30;1.00;;;;;;;19.63;53.75;97235.56;10189998;29;20060;-56
2022/07/16 14:49:10;;;;;;;1.00;0.90;;;;;;;19.65;53.78;97244.16;10190221;29;20555;-56
2022/07/16 14:54:30;;;;;;;1.02;0.90;;;;;;;19.66;53.70;97254.66;10176843;29;20116;-55
2022/07/16 14:59:49;;;;;;;2.28;1.20;;;;;;;19.68;53.69;97249.75;10187120;29;20067;-55
2022/07/16 15:05:09;;;;;;;0.90;0.88;;;;;;;19.68;53.68;97257.03;10164032;29;20531;-56
2022/07/16 15:10:28;;;;;;;1.25;1.00;;;;;;;19.67;53.71;97252.75;10189182;29;20111;-55
2022/07/16 15:15:47;;;;;;;1.25;1.10;;;;;;;19.68;53.83;97270.56;10176677;29;20527;-56
2022/07/16 15:21:07;;;;;;;1.27;1.05;;;;;;;19.67;53.76;97263.56;10176000;29;20462;-56
2022/07/16 15:26:26;;;;;;;1.17;1.00;;;;;;;19.68;53.81;97265.16;10188340;29;20485;-57
2022/07/16 15:31:45;;;;;;;1.05;0.90;;;;;;;19.69;53.86;97267.53;10175935;29;20048;-56
2022/07/16 15:37:05;;;;;;;0.90;0.88;;;;;;;19.71;53.82;97272.63;10175364;29;20048;-56
2022/07/16 15:42:24;;;;;;;0.80;0.80;;;;;;;19.71;53.82;97267.22;10167264;29;20059;-56
2022/07/16 15:47:44;;;;;;;1.42;1.02;;;;;;;19.72;53.78;97272.38;10175101;29;20056;-56
2022/07/16 15:53:04;;;;;;;1.02;1.00;;;;;;;19.76;53.68;97267.13;10175023;29;20465;-56
2022/07/16 15:58:23;;;;;;;0.75;0.75;;;;;;;19.79;53.73;97273.81;10187121;29;20104;-55
2022/07/16 16:03:43;;;;;;;1.65;0.98;;;;;;;19.79;53.65;97277.31;10187476;29;20051;-55
2022/07/16 16:09:07;;;;;;;1.35;1.00;;;;;;;19.82;53.75;97276.69;10186701;29;20591;-57
2022/07/16 16:14:26;;;;;;;0.95;0.90;;;;;;;19.84;53.69;97279.88;10174378;29;20053;-55
2022/07/16 16:19:45;;;;;;;2.30;1.00;;;;;;;19.83;53.75;97283.66;10161986;29;20103;-56
2022/07/16 16:25:06;;;;;;;1.10;0.90;;;;;;;19.84;53.79;97285.28;10173630;29;20061;-56
2022/07/16 16:30:27;;;;;;;1.33;0.93;;;;;;;19.85;53.72;97297.66;10177064;29;20052;-56
2022/07/16 16:35:47;;;;;;;1.65;0.80;;;;;;;19.86;53.77;97293.09;10173480;29;20060;-55
2022/07/16 16:41:06;;;;;;;1.00;0.90;;;;;;;19.85;53.77;97289.56;10167810;29;20103;-56
2022/07/16 16:46:26;;;;;;;1.00;0.73;;;;;;;19.86;53.99;97295.78;10173384;29;20067;-56
2022/07/16 16:51:46;;;;;;;1.27;1.10;;;;;;;19.87;53.82;97303.56;10185722;29;20052;-56
2022/07/16 16:57:06;;;;;;;0.80;0.70;;;;;;;19.87;53.81;97311.66;10161941;29;20057;-57
2022/07/16 17:02:25;;;;;;;0.95;0.80;;;;;;;19.87;53.83;97308.97;10173092;29;20060;-56
2022/07/16 17:07:45;;;;;;;0.95;0.80;;;;;;;19.87;53.92;97311.66;10168512;29;20060;-56
2022/07/16 17:13:05;;;;;;;1.42;0.90;;;;;;;19.88;53.92;97307.09;10184852;29;20048;-55
2022/07/16 17:18:25;;;;;;;1.17;0.90;;;;;;;19.88;53.93;97320.59;10172780;29;20456;-56
2022/07/16 17:23:44;;;;;;;1.77;0.85;;;;;;;19.88;53.90;97326.78;10172775;29;20062;-56
2022/07/16 17:29:04;;;;;;;0.80;0.80;;;;;;;19.88;53.92;97326.78;10174153;29;20107;-57
2022/07/16 17:34:23;;;;;;;0.80;0.73;;;;;;;19.87;53.77;97335.22;10179751;29;20064;-56
2022/07/16 17:39:43;;;;;;;0.85;0.70;;;;;;;19.87;53.91;97351.44;10191113;29;20067;-55
2022/07/16 17:45:03;;;;;;;0.70;0.70;;;;;;;19.87;53.91;97359.56;10191704;29;20131;-56
2022/07/16 17:50:25;;;;;;;0.70;0.70;;;;;;;19.86;53.88;97357.97;10179288;29;20123;-56
2022/07/16 17:55:45;;;;;;;0.80;0.80;;;;;;;19.86;53.89;97361.47;10179497;29;20052;-56
2022/07/16 18:01:04;;;;;;;0.80;0.80;;;;;;;19.85;53.92;97362.56;10191641;29;20052;-56
2022/07/16 18:06:24;;;;;;;0.85;0.70;;;;;;;19.86;53.95;97377.69;10177155;29;20067;-56
2022/07/16 18:11:43;;;;;;;0.70;0.70;;;;;;;19.86;53.87;97380.41;10191233;29;20056;-56
2022/07/16 18:17:03;;;;;;;1.10;1.00;;;;;;;19.86;53.86;97379.59;10191281;29;20059;-56
2022/07/16 18:22:22;;;;;;;1.00;0.88;;;;;;;19.84;53.83;97379.91;10178169;29;20064;-56
2022/07/16 18:27:41;;;;;;;0.88;0.80;;;;;;;19.84;53.81;97390.72;10177442;29;20052;-56
2022/07/16 18:33:00;;;;;;;0.77;0.77;;;;;;;19.84;53.65;97400.75;10190204;29;20044;-56
2022/07/16 18:38:20;;;;;;;2.15;0.90;;;;;;;19.84;53.79;97395.34;10202093;29;20504;-56
2022/07/16 18:43:39;;;;;;;0.70;0.70;;;;;;;19.83;53.73;97402.63;10176069;29;20531;-56
2022/07/16 18:49:00;;;;;;;1.13;0.82;;;;;;;19.83;53.63;97416.16;10177344;29;20064;-55
2022/07/16 18:54:20;;;;;;;1.15;0.73;;;;;;;19.84;53.66;97425.09;10189725;29;20059;-56
2022/07/16 18:59:39;;;;;;;0.85;0.80;;;;;;;19.84;53.79;97430.50;10177092;29;20127;-56
2022/07/16 19:04:59;;;;;;;1.20;0.80;;;;;;;19.84;53.88;97433.19;10175980;29;20088;-56
2022/07/16 19:10:20;;;;;;;1.10;0.90;;;;;;;19.83;53.79;97437.78;10189438;29;20445;-51
2022/07/16 19:15:40;;;;;;;1.08;0.65;;;;;;;19.83;53.65;97454.00;10176584;29;20056;-56
2022/07/16 19:20:59;;;;;;;1.40;0.80;;;;;;;19.82;53.76;97455.13;10188862;29;20433;-56
2022/07/16 19:26:22;;;;;;;0.95;0.77;;;;;;;19.83;53.72;97466.72;10165424;29;20052;-55
2022/07/16 19:31:42;;;;;;;0.85;0.85;;;;;;;19.83;53.69;97472.94;10175070;29;20116;-56
2022/07/16 19:37:01;;;;;;;0.88;0.88;;;;;;;19.82;53.63;97475.97;10172633;29;20079;-56
2022/07/16 19:42:21;;;;;;;1.10;1.00;;;;;;;19.83;53.58;97493.78;10175735;29;20068;-56
2022/07/16 19:47:41;;;;;;;1.33;0.90;;;;;;;19.83;53.45;97496.47;10187700;29;20259;-56
2022/07/16 19:53:01;;;;;;;1.88;0.95;;;;;;;19.83;53.58;97505.38;10175063;29;20060;-56
2022/07/16 19:58:21;;;;;;;0.80;0.80;;;;;;;19.82;53.61;97517.31;10175090;29;20064;-56
2022/07/16 20:03:41;;;;;;;1.00;0.90;;;;;;;19.82;53.52;97511.91;10176957;29;20059;-56
2022/07/16 20:09:00;;;;;;;0.77;0.70;;;;;;;19.82;53.52;97514.59;10174496;29;20067;-56
2022/07/16 20:14:20;;;;;;;0.90;0.70;;;;;;;19.82;53.42;97519.22;10174489;29;20067;-56
2022/07/16 20:19:40;;;;;;;1.98;0.93;;;;;;;19.83;53.35;97520.81;10166652;29;20063;-56
2022/07/16 20:25:00;;;;;;;0.85;0.77;;;;;;;19.83;53.29;97527.00;10173921;29;20056;-57
2022/07/16 20:30:27;;;;;;;2.25;0.80;;;;;;;19.82;53.33;97536.25;10173114;29;20617;-56
2022/07/16 20:35:46;;;;;;;0.80;0.80;;;;;;;19.82;53.15;97547.06;10173417;29;20060;-55
2022/07/16 20:41:06;;;;;;;0.75;0.75;;;;;;;19.83;53.34;97558.66;10163340;29;20080;-56
2022/07/16 20:46:25;;;;;;;0.80;0.80;;;;;;;19.82;53.12;97565.19;10185800;29;20563;-55
2022/07/16 20:51:45;;;;;;;0.73;0.73;;;;;;;19.80;53.15;97576.31;10173364;29;20056;-55
2022/07/16 20:57:04;;;;;;;0.88;0.77;;;;;;;19.82;53.11;97574.09;10173953;29;20048;-55
2022/07/16 21:02:24;;;;;;;0.80;0.80;;;;;;;19.81;53.16;97575.19;10173018;29;20064;-56
2022/07/16 21:07:44;;;;;;;0.82;0.77;;;;;;;19.81;53.22;97577.09;10181183;29;20082;-56
2022/07/16 21:13:03;;;;;;;1.00;0.85;;;;;;;19.81;53.22;97582.50;10180426;29;20421;-56
2022/07/16 21:18:23;;;;;;;0.80;0.80;;;;;;;19.80;53.05;97597.13;10174875;29;20052;-56
2022/07/16 21:23:43;;;;;;;1.10;1.00;;;;;;;19.82;53.08;97611.16;10180729;29;20064;-56
2022/07/16 21:29:02;;;;;;;0.70;0.70;;;;;;;19.81;52.92;97617.66;10179848;29;20052;-56
2022/07/16 21:34:23;;;;;;;0.80;0.80;;;;;;;19.79;53.04;97620.66;10170722;29;20124;-54
2022/07/16 21:39:42;;;;;;;0.80;0.80;;;;;;;19.81;52.85;97614.94;10179389;29;20071;-56
2022/07/16 21:45:01;;;;;;;0.98;0.85;;;;;;;19.80;52.81;97618.75;10179645;29;20052;-56
2022/07/16 21:50:21;;;;;;;1.13;0.80;;;;;;;19.80;52.76;97629.56;10179456;29;20060;-55
2022/07/16 21:55:40;;;;;;;1.13;0.98;;;;;;;19.82;52.83;97635.50;10179332;29;20056;-57
2022/07/16 22:01:00;;;;;;;1.55;0.98;;;;;;;19.80;52.78;97645.78;10178754;29;20056;-56
2022/07/16 22:06:21;;;;;;;0.80;0.80;;;;;;;19.81;52.68;97658.22;10179550;29;20058;-56
2022/07/16 22:11:40;;;;;;;2.00;0.98;;;;;;;19.80;52.67;97662.00;10166904;29;20120;-56
2022/07/16 22:16:59;;;;;;;1.00;0.90;;;;;;;19.79;52.71;97666.63;10191276;29;20465;-56
2022/07/16 22:22:19;;;;;;;1.08;0.98;;;;;;;19.78;52.62;97665.03;10178614;29;20060;-53
2022/07/16 22:27:39;;;;;;;1.60;0.70;;;;;;;19.79;52.51;97669.31;10177736;29;20107;-55
2022/07/16 22:32:58;;;;;;;1.65;1.00;;;;;;;19.79;52.58;97669.31;10177861;29;20112;-56
2022/07/16 22:38:18;;;;;;;0.93;0.90;;;;;;;19.78;52.40;97670.44;10189788;29;20060;-55
2022/07/16 22:43:37;;;;;;;1.75;0.85;;;;;;;19.78;52.63;97675.84;10187226;29;20424;-56
2022/07/16 22:48:56;;;;;;;1.15;1.00;;;;;;;19.78;52.44;97681.25;10190189;29;20063;-56
2022/07/16 22:54:16;;;;;;;2.20;0.77;;;;;;;19.78;52.52;97681.25;10177487;29;20060;-56
2022/07/16 22:59:35;;;;;;;1.02;0.93;;;;;;;19.77;52.41;97687.75;10162744;29;20059;-56
2022/07/16 23:04:55;;;;;;;1.40;0.93;;;;;;;19.78;52.25;97693.94;10176848;29;20064;-56
2022/07/16 23:10:14;;;;;;;1.00;0.90;;;;;;;19.78;52.37;97699.34;10189324;29;20048;-56
2022/07/16 23:15:34;;;;;;;1.25;0.90;;;;;;;19.77;52.39;97703.19;10176544;29;20059;-56
2022/07/16 23:20:53;;;;;;;0.88;0.80;;;;;;;19.78;52.26;97707.47;10176429;29;20063;-56
2022/07/16 23:26:12;;;;;;;0.90;0.90;;;;;;;19.76;52.21;97713.22;10175473;29;20060;-56
2022/07/16 23:31:31;;;;;;;1.30;1.00;;;;;;;19.76;52.26;97707.81;10168946;29;20060;-56
2022/07/16 23:36:51;;;;;;;1.10;0.95;;;;;;;19.77;52.21;97705.88;10183672;29;20056;-56
2022/07/16 23:42:10;;;;;;;0.90;0.90;;;;;;;19.77;52.14;97712.09;10175276;29;20063;-56
2022/07/16 23:47:29;;;;;;;1.15;0.88;;;;;;;19.76;52.13;97715.91;10165168;29;20056;-56
2022/07/16 23:52:49;;;;;;;0.88;0.80;;;;;;;19.75;52.07;97717.00;10174679;29;20067;-56
2022/07/16 23:58:08;;;;;;;1.08;0.88;;;;;;;19.75;52.11;97719.69;10180741;29;20056;-57
